sensor_id;sensor_type;location;lat;lon;timestamp;P1;durP1;ratioP1;P2;durP2;ratioP2
6862;SDS011;3470;48.738;9.616;2022-11-13T00:00:28;9.97;;;8.17;;
6862;SDS011;3470;48.738;9.616;2022-11-13T00:02:54;12.03;;;9.50;;
6862;SDS011;3470;48.738;9.616;2022-11-13T00:05:19;9.57;;;8.37;;
6862;SDS011;3470;48.738;9.616;2022-11-13T00:07:45;10.40;;;8.83;;
6862;SDS011;3470;48.738;9.616;2022-11-13T00:10:10;10.10;;;8.30;;
6862;SDS011;3470;48.738;9.616;2022-11-13T00:12:36;10.67;;;9.20;;
6862;SDS011;3470;48.738;9.616;2022-11-13T00:15:02;9.97;;;8.97;;
6862;SDS011;3470;48.738;9.616;2022-11-13T00:17:28;11.87;;;9.30;;
6862;SDS011;3470;48.738;9.616;2022-11-13T00:19:53;11.37;;;8.77;;
6862;SDS011;3470;48.738;9.616;2022-11-13T00:22:19;11.30;;;8.67;;
6862;SDS011;3470;48.738;9.616;2022-11-13T00:24:45;12.03;;;9.43;;
6862;SDS011;3470;48.738;9.616;2022-11-13T00:27:11;9.33;;;8.27;;
6862;SDS011;3470;48.738;9.616;2022-11-13T00:29:36;10.63;;;8.73;;
6862;SDS011;3470;48.738;9.616;2022-11-13T00:32:02;10.73;;;8.40;;
6862;SDS011;3470;48.738;9.616;2022-11-13T00:34:28;10.10;;;9.03;;
6862;SDS011;3470;48.738;9.616;2022-11-13T00:36:53;10.33;;;8.87;;
6862;SDS011;3470;48.738;9.616;2022-11-13T00:39:19;11.70;;;8.90;;
6862;SDS011;3470;48.738;9.616;2022-11-13T00:41:44;11.50;;;9.20;;
6862;SDS011;3470;48.738;9.616;2022-11-13T00:44:10;12.33;;;9.40;;
6862;SDS011;3470;48.738;9.616;2022-11-13T00:46:35;11.73;;;9.33;;
6862;SDS011;3470;48.738;9.616;2022-11-13T00:49:01;11.10;;;9.37;;
6862;SDS011;3470;48.738;9.616;2022-11-13T00:51:27;13.43;;;9.93;;
6862;SDS011;3470;48.738;9.616;2022-11-13T00:53:53;11.07;;;8.67;;
6862;SDS011;3470;48.738;9.616;2022-11-13T00:56:18;9.97;;;8.30;;
6862;SDS011;3470;48.738;9.616;2022-11-13T00:58:44;9.40;;;8.17;;
6862;SDS011;3470;48.738;9.616;2022-11-13T01:01:11;9.07;;;8.17;;
6862;SDS011;3470;48.738;9.616;2022-11-13T01:03:38;11.33;;;8.37;;
6862;SDS011;3470;48.738;9.616;2022-11-13T01:06:11;9.43;;;8.43;;
6862;SDS011;3470;48.738;9.616;2022-11-13T01:08:47;9.77;;;8.30;;
6862;SDS011;3470;48.738;9.616;2022-11-13T01:11:14;10.83;;;8.70;;
6862;SDS011;3470;48.738;9.616;2022-11-13T01:13:46;9.53;;;7.60;;
6862;SDS011;3470;48.738;9.616;2022-11-13T01:16:13;10.10;;;8.90;;
6862;SDS011;3470;48.738;9.616;2022-11-13T01:18:40;9.90;;;7.90;;
6862;SDS011;3470;48.738;9.616;2022-11-13T01:21:25;9.27;;;7.60;;
6862;SDS011;3470;48.738;9.616;2022-11-13T01:23:51;10.20;;;7.97;;
6862;SDS011;3470;48.738;9.616;2022-11-13T01:26:26;9.70;;;8.63;;
6862;SDS011;3470;48.738;9.616;2022-11-13T01:28:54;8.73;;;7.47;;
6862;SDS011;3470;48.738;9.616;2022-11-13T09:11:20;5.10;;;4.60;;
6862;SDS011;3470;48.738;9.616;2022-11-13T09:13:46;5.28;;;4.78;;
6862;SDS011;3470;48.738;9.616;2022-11-13T09:16:12;5.47;;;4.97;;
6862;SDS011;3470;48.738;9.616;2022-11-13T09:18:37;5.05;;;4.63;;
6862;SDS011;3470;48.738;9.616;2022-11-13T09:21:03;5.45;;;4.82;;
6862;SDS011;3470;48.738;9.616;2022-11-13T09:23:29;4.80;;;4.40;;
6862;SDS011;3470;48.738;9.616;2022-11-13T09:25:55;5.10;;;4.70;;
6862;SDS011;3470;48.738;9.616;2022-11-13T09:28:20;4.68;;;4.28;;
6862;SDS011;3470;48.738;9.616;2022-11-13T09:30:46;5.05;;;4.50;;
6862;SDS011;3470;48.738;9.616;2022-11-13T09:33:12;4.97;;;4.47;;
6862;SDS011;3470;48.738;9.616;2022-11-13T09:35:41;5.05;;;4.15;;
6862;SDS011;3470;48.738;9.616;2022-11-13T09:38:10;4.00;;;3.70;;
6862;SDS011;3470;48.738;9.616;2022-11-13T09:40:42;4.30;;;3.90;;
6862;SDS011;3470;48.738;9.616;2022-11-13T09:43:39;3.63;;;3.33;;
6862;SDS011;3470;48.738;9.616;2022-11-13T09:49:11;4.00;;;3.70;;
6862;SDS011;3470;48.738;9.616;2022-11-13T09:51:45;5.20;;;4.70;;
6862;SDS011;3470;48.738;9.616;2022-11-13T09:54:20;4.43;;;3.88;;
6862;SDS011;3470;48.738;9.616;2022-11-13T10:00:09;2.90;;;2.70;;
6862;SDS011;3470;48.738;9.616;2022-11-13T10:08:14;3.17;;;2.85;;
6862;SDS011;3470;48.738;9.616;2022-11-13T10:13:33;2.97;;;2.67;;
6862;SDS011;3470;48.738;9.616;2022-11-13T10:16:14;3.00;;;2.80;;
6862;SDS011;3470;48.738;9.616;2022-11-13T10:18:45;2.92;;;2.63;;
6862;SDS011;3470;48.738;9.616;2022-11-13T10:21:30;3.25;;;2.78;;
6862;SDS011;3470;48.738;9.616;2022-11-13T10:24:15;3.05;;;2.42;;
6862;SDS011;3470;48.738;9.616;2022-11-13T10:27:04;2.65;;;2.45;;
6862;SDS011;3470;48.738;9.616;2022-11-13T10:29:33;3.45;;;2.42;;
6862;SDS011;3470;48.738;9.616;2022-11-13T10:31:59;3.35;;;3.05;;
6862;SDS011;3470;48.738;9.616;2022-11-13T10:35:15;3.58;;;3.25;;
6862;SDS011;3470;48.738;9.616;2022-11-13T10:40:43;3.65;;;3.25;;
6862;SDS011;3470;48.738;9.616;2022-11-13T10:45:42;3.45;;;2.97;;
6862;SDS011;3470;48.738;9.616;2022-11-13T10:48:21;3.25;;;2.95;;
6862;SDS011;3470;48.738;9.616;2022-11-13T10:53:52;3.17;;;2.88;;
6862;SDS011;3470;48.738;9.616;2022-11-13T10:56:20;3.33;;;3.00;;
6862;SDS011;3470;48.738;9.616;2022-11-13T11:01:35;3.97;;;2.85;;
6862;SDS011;3470;48.738;9.616;2022-11-13T11:04:05;3.78;;;3.28;;
6862;SDS011;3470;48.738;9.616;2022-11-13T11:06:36;2.88;;;2.67;;
6862;SDS011;3470;48.738;9.616;2022-11-13T11:09:07;4.22;;;3.05;;
6862;SDS011;3470;48.738;9.616;2022-11-13T11:11:39;3.42;;;3.13;;
6862;SDS011;3470;48.738;9.616;2022-11-13T11:14:27;3.90;;;3.60;;
6862;SDS011;3470;48.738;9.616;2022-11-13T11:16:57;5.35;;;3.63;;
6862;SDS011;3470;48.738;9.616;2022-11-13T11:19:26;3.78;;;3.47;;
6862;SDS011;3470;48.738;9.616;2022-11-13T11:22:00;4.20;;;3.75;;
6862;SDS011;3470;48.738;9.616;2022-11-13T11:24:49;3.90;;;3.55;;
6862;SDS011;3470;48.738;9.616;2022-11-13T11:27:21;4.20;;;3.80;;
6862;SDS011;3470;48.738;9.616;2022-11-13T11:30:05;4.22;;;3.80;;
6862;SDS011;3470;48.738;9.616;2022-11-13T11:32:45;3.95;;;3.65;;
6862;SDS011;3470;48.738;9.616;2022-11-13T11:35:46;4.00;;;3.70;;
6862;SDS011;3470;48.738;9.616;2022-11-13T11:38:25;4.68;;;3.95;;
6862;SDS011;3470;48.738;9.616;2022-11-13T11:41:10;3.70;;;3.30;;
6862;SDS011;3470;48.738;9.616;2022-11-13T11:46:03;4.05;;;3.63;;
6862;SDS011;3470;48.738;9.616;2022-11-13T11:48:29;3.72;;;3.42;;
6862;SDS011;3470;48.738;9.616;2022-11-13T11:56:52;4.40;;;4.00;;
6862;SDS011;3470;48.738;9.616;2022-11-13T11:59:27;4.53;;;4.10;;
6862;SDS011;3470;48.738;9.616;2022-11-13T12:10:13;3.83;;;3.05;;
6862;SDS011;3470;48.738;9.616;2022-11-13T12:26:40;3.72;;;3.42;;
6862;SDS011;3470;48.738;9.616;2022-11-13T12:35:21;4.50;;;3.97;;
6862;SDS011;3470;48.738;9.616;2022-11-13T12:37:50;3.60;;;3.30;;
6862;SDS011;3470;48.738;9.616;2022-11-13T12:40:30;3.85;;;3.50;;
6862;SDS011;3470;48.738;9.616;2022-11-13T12:46:12;4.38;;;3.97;;
6862;SDS011;3470;48.738;9.616;2022-11-13T12:51:07;4.10;;;3.70;;
6862;SDS011;3470;48.738;9.616;2022-11-13T12:56:12;4.05;;;3.72;;
6862;SDS011;3470;48.738;9.616;2022-11-13T12:58:53;4.78;;;3.50;;
6862;SDS011;3470;48.738;9.616;2022-11-13T13:01:25;5.53;;;3.63;;
6862;SDS011;3470;48.738;9.616;2022-11-13T13:18:00;3.60;;;3.30;;
6862;SDS011;3470;48.738;9.616;2022-11-13T13:21:10;3.60;;;3.30;;
6862;SDS011;3470;48.738;9.616;2022-11-13T13:23:37;3.90;;;3.60;;
6862;SDS011;3470;48.738;9.616;2022-11-13T13:26:18;3.55;;;3.25;;
6862;SDS011;3470;48.738;9.616;2022-11-13T13:28:55;4.55;;;3.50;;
6862;SDS011;3470;48.738;9.616;2022-11-13T13:31:44;3.50;;;3.20;;
6862;SDS011;3470;48.738;9.616;2022-11-13T13:37:18;3.45;;;3.15;;
6862;SDS011;3470;48.738;9.616;2022-11-13T13:47:48;6.40;;;5.80;;
6862;SDS011;3470;48.738;9.616;2022-11-13T13:50:17;6.75;;;6.15;;
6862;SDS011;3470;48.738;9.616;2022-11-13T13:52:45;6.88;;;5.65;;
6862;SDS011;3470;48.738;9.616;2022-11-13T13:55:32;6.05;;;5.55;;
6862;SDS011;3470;48.738;9.616;2022-11-13T13:58:12;6.13;;;5.53;;
6862;SDS011;3470;48.738;9.616;2022-11-13T14:00:40;6.10;;;5.60;;
6862;SDS011;3470;48.738;9.616;2022-11-13T14:03:17;6.18;;;5.68;;
6862;SDS011;3470;48.738;9.616;2022-11-13T14:05:44;6.20;;;5.60;;
6862;SDS011;3470;48.738;9.616;2022-11-13T14:08:17;7.25;;;5.82;;
6862;SDS011;3470;48.738;9.616;2022-11-13T14:10:43;6.93;;;5.70;;
6862;SDS011;3470;48.738;9.616;2022-11-13T14:13:11;9.25;;;8.35;;
6862;SDS011;3470;48.738;9.616;2022-11-13T14:15:38;6.60;;;5.90;;
6862;SDS011;3470;48.738;9.616;2022-11-13T14:20:32;7.07;;;6.47;;
6862;SDS011;3470;48.738;9.616;2022-11-13T14:23:04;6.47;;;5.97;;
6862;SDS011;3470;48.738;9.616;2022-11-13T14:25:33;5.60;;;5.18;;
6862;SDS011;3470;48.738;9.616;2022-11-13T14:27:58;5.57;;;5.07;;
6862;SDS011;3470;48.738;9.616;2022-11-13T14:30:25;4.85;;;4.45;;
6862;SDS011;3470;48.738;9.616;2022-11-13T14:32:52;5.50;;;5.00;;
6862;SDS011;3470;48.738;9.616;2022-11-13T14:35:20;5.55;;;5.05;;
6862;SDS011;3470;48.738;9.616;2022-11-13T14:37:48;5.60;;;5.10;;
6862;SDS011;3470;48.738;9.616;2022-11-13T14:42:53;5.15;;;4.65;;
6862;SDS011;3470;48.738;9.616;2022-11-13T14:45:29;5.07;;;4.57;;
6862;SDS011;3470;48.738;9.616;2022-11-13T14:47:56;6.00;;;5.45;;
6862;SDS011;3470;48.738;9.616;2022-11-13T14:50:31;5.40;;;4.90;;
6862;SDS011;3470;48.738;9.616;2022-11-13T14:53:01;5.45;;;4.95;;
6862;SDS011;3470;48.738;9.616;2022-11-13T14:55:29;5.20;;;4.63;;
6862;SDS011;3470;48.738;9.616;2022-11-13T14:57:57;5.05;;;4.55;;
6862;SDS011;3470;48.738;9.616;2022-11-13T15:00:56;4.72;;;4.32;;
6862;SDS011;3470;48.738;9.616;2022-11-13T15:03:15;4.35;;;3.95;;
6862;SDS011;3470;48.738;9.616;2022-11-13T15:05:40;5.55;;;4.35;;
6862;SDS011;3470;48.738;9.616;2022-11-13T15:08:10;4.70;;;4.30;;
6862;SDS011;3470;48.738;9.616;2022-11-13T15:10:37;5.75;;;5.00;;
6862;SDS011;3470;48.738;9.616;2022-11-13T15:13:10;24.65;;;23.20;;
6862;SDS011;3470;48.738;9.616;2022-11-13T15:15:37;7.30;;;6.60;;
6862;SDS011;3470;48.738;9.616;2022-11-13T15:18:02;17.73;;;16.00;;
6862;SDS011;3470;48.738;9.616;2022-11-13T15:20:28;11.10;;;9.98;;
6862;SDS011;3470;48.738;9.616;2022-11-13T15:22:56;63.88;;;57.45;;
6862;SDS011;3470;48.738;9.616;2022-11-13T15:25:23;51.47;;;43.67;;
6862;SDS011;3470;48.738;9.616;2022-11-13T15:27:50;11.60;;;10.13;;
6862;SDS011;3470;48.738;9.616;2022-11-13T15:30:16;11.17;;;9.57;;
6862;SDS011;3470;48.738;9.616;2022-11-13T15:32:42;8.40;;;7.10;;
6862;SDS011;3470;48.738;9.616;2022-11-13T15:35:12;6.33;;;5.80;;
6862;SDS011;3470;48.738;9.616;2022-11-13T15:37:41;8.17;;;7.07;;
6862;SDS011;3470;48.738;9.616;2022-11-13T15:40:07;5.77;;;5.27;;
6862;SDS011;3470;48.738;9.616;2022-11-13T15:42:34;6.47;;;5.73;;
6862;SDS011;3470;48.738;9.616;2022-11-13T15:45:00;6.07;;;5.30;;
6862;SDS011;3470;48.738;9.616;2022-11-13T15:47:31;8.70;;;5.03;;
6862;SDS011;3470;48.738;9.616;2022-11-13T15:49:58;7.47;;;5.93;;
6862;SDS011;3470;48.738;9.616;2022-11-13T15:52:25;20.37;;;13.03;;
6862;SDS011;3470;48.738;9.616;2022-11-13T15:54:53;11.43;;;7.27;;
6862;SDS011;3470;48.738;9.616;2022-11-13T15:57:21;8.10;;;5.73;;
6862;SDS011;3470;48.738;9.616;2022-11-13T15:59:48;6.67;;;5.40;;
6862;SDS011;3470;48.738;9.616;2022-11-13T16:02:14;8.70;;;5.30;;
6862;SDS011;3470;48.738;9.616;2022-11-13T16:04:40;6.83;;;5.80;;
6862;SDS011;3470;48.738;9.616;2022-11-13T16:07:25;8.93;;;6.30;;
6862;SDS011;3470;48.738;9.616;2022-11-13T16:09:53;11.90;;;9.00;;
6862;SDS011;3470;48.738;9.616;2022-11-13T16:12:18;61.10;;;27.10;;
6862;SDS011;3470;48.738;9.616;2022-11-13T16:14:44;43.60;;;23.10;;
6862;SDS011;3470;48.738;9.616;2022-11-13T16:17:11;7.33;;;6.53;;
6862;SDS011;3470;48.738;9.616;2022-11-13T16:19:40;7.23;;;6.10;;
6862;SDS011;3470;48.738;9.616;2022-11-13T16:22:23;6.73;;;5.83;;
6862;SDS011;3470;48.738;9.616;2022-11-13T16:24:49;8.03;;;5.93;;
6862;SDS011;3470;48.738;9.616;2022-11-13T16:27:28;7.13;;;6.43;;
6862;SDS011;3470;48.738;9.616;2022-11-13T16:29:56;7.37;;;6.57;;
6862;SDS011;3470;48.738;9.616;2022-11-13T16:32:21;8.20;;;6.37;;
6862;SDS011;3470;48.738;9.616;2022-11-13T16:34:47;8.63;;;6.83;;
6862;SDS011;3470;48.738;9.616;2022-11-13T16:37:17;6.90;;;6.20;;
6862;SDS011;3470;48.738;9.616;2022-11-13T16:39:47;8.30;;;7.40;;
6862;SDS011;3470;48.738;9.616;2022-11-13T16:42:14;6.87;;;6.17;;
6862;SDS011;3470;48.738;9.616;2022-11-13T16:44:40;9.27;;;6.73;;
6862;SDS011;3470;48.738;9.616;2022-11-13T16:47:15;9.10;;;6.47;;
6862;SDS011;3470;48.738;9.616;2022-11-13T16:49:46;9.43;;;6.93;;
6862;SDS011;3470;48.738;9.616;2022-11-13T16:52:12;8.43;;;6.43;;
6862;SDS011;3470;48.738;9.616;2022-11-13T16:54:38;9.33;;;7.30;;
6862;SDS011;3470;48.738;9.616;2022-11-13T16:57:03;8.63;;;7.20;;
6862;SDS011;3470;48.738;9.616;2022-11-13T16:59:29;9.93;;;8.33;;
6862;SDS011;3470;48.738;9.616;2022-11-13T17:01:54;10.40;;;7.60;;
6862;SDS011;3470;48.738;9.616;2022-11-13T17:04:20;10.37;;;7.80;;
6862;SDS011;3470;48.738;9.616;2022-11-13T17:06:46;9.77;;;8.07;;
6862;SDS011;3470;48.738;9.616;2022-11-13T17:09:12;9.50;;;7.87;;
6862;SDS011;3470;48.738;9.616;2022-11-13T17:11:38;9.27;;;7.77;;
6862;SDS011;3470;48.738;9.616;2022-11-13T17:14:03;9.03;;;7.93;;
6862;SDS011;3470;48.738;9.616;2022-11-13T17:16:30;9.23;;;7.80;;
6862;SDS011;3470;48.738;9.616;2022-11-13T17:18:56;10.37;;;9.27;;
6862;SDS011;3470;48.738;9.616;2022-11-13T17:21:24;8.43;;;7.00;;
6862;SDS011;3470;48.738;9.616;2022-11-13T17:24:02;8.97;;;7.37;;
6862;SDS011;3470;48.738;9.616;2022-11-13T17:26:28;10.13;;;7.67;;
6862;SDS011;3470;48.738;9.616;2022-11-13T17:28:55;9.43;;;7.77;;
6862;SDS011;3470;48.738;9.616;2022-11-13T17:31:23;8.37;;;7.37;;
6862;SDS011;3470;48.738;9.616;2022-11-13T17:33:50;10.93;;;7.70;;
6862;SDS011;3470;48.738;9.616;2022-11-13T17:36:17;7.73;;;6.93;;
6862;SDS011;3470;48.738;9.616;2022-11-13T17:38:43;8.70;;;7.60;;
6862;SDS011;3470;48.738;9.616;2022-11-13T17:41:09;10.10;;;7.70;;
6862;SDS011;3470;48.738;9.616;2022-11-13T17:43:36;8.40;;;7.27;;
6862;SDS011;3470;48.738;9.616;2022-11-13T17:46:03;9.27;;;8.10;;
6862;SDS011;3470;48.738;9.616;2022-11-13T17:48:30;10.03;;;8.83;;
6862;SDS011;3470;48.738;9.616;2022-11-13T17:50:57;10.83;;;8.47;;
6862;SDS011;3470;48.738;9.616;2022-11-13T17:53:24;12.03;;;9.30;;
6862;SDS011;3470;48.738;9.616;2022-11-13T17:55:53;10.03;;;8.33;;
6862;SDS011;3470;48.738;9.616;2022-11-13T17:58:20;11.50;;;9.03;;
6862;SDS011;3470;48.738;9.616;2022-11-13T18:00:46;11.03;;;9.40;;
6862;SDS011;3470;48.738;9.616;2022-11-13T18:03:12;13.33;;;10.17;;
6862;SDS011;3470;48.738;9.616;2022-11-13T18:05:37;12.53;;;11.17;;
6862;SDS011;3470;48.738;9.616;2022-11-13T18:08:03;13.27;;;10.83;;
6862;SDS011;3470;48.738;9.616;2022-11-13T18:10:30;12.50;;;10.23;;
6862;SDS011;3470;48.738;9.616;2022-11-13T18:12:56;13.27;;;10.70;;
6862;SDS011;3470;48.738;9.616;2022-11-13T18:15:21;13.67;;;11.23;;
6862;SDS011;3470;48.738;9.616;2022-11-13T18:17:47;13.77;;;10.57;;
6862;SDS011;3470;48.738;9.616;2022-11-13T18:20:13;13.73;;;11.53;;
6862;SDS011;3470;48.738;9.616;2022-11-13T18:22:38;14.53;;;11.90;;
6862;SDS011;3470;48.738;9.616;2022-11-13T18:25:04;16.43;;;12.13;;
6862;SDS011;3470;48.738;9.616;2022-11-13T18:27:30;16.47;;;12.70;;
6862;SDS011;3470;48.738;9.616;2022-11-13T18:29:56;16.87;;;13.83;;
6862;SDS011;3470;48.738;9.616;2022-11-13T18:32:21;15.30;;;12.13;;
6862;SDS011;3470;48.738;9.616;2022-11-13T18:34:47;16.03;;;13.50;;
6862;SDS011;3470;48.738;9.616;2022-11-13T18:37:13;18.90;;;14.00;;
6862;SDS011;3470;48.738;9.616;2022-11-13T18:39:39;21.47;;;15.20;;
6862;SDS011;3470;48.738;9.616;2022-11-13T18:42:04;19.87;;;15.47;;
6862;SDS011;3470;48.738;9.616;2022-11-13T18:44:30;21.30;;;16.50;;
6862;SDS011;3470;48.738;9.616;2022-11-13T18:46:55;23.50;;;17.20;;
6862;SDS011;3470;48.738;9.616;2022-11-13T18:49:21;21.80;;;17.17;;
6862;SDS011;3470;48.738;9.616;2022-11-13T18:51:47;20.73;;;16.70;;
6862;SDS011;3470;48.738;9.616;2022-11-13T18:54:12;20.53;;;16.63;;
6862;SDS011;3470;48.738;9.616;2022-11-13T18:56:38;22.63;;;17.67;;
6862;SDS011;3470;48.738;9.616;2022-11-13T18:59:04;24.40;;;17.83;;
6862;SDS011;3470;48.738;9.616;2022-11-13T19:01:31;20.40;;;17.17;;
6862;SDS011;3470;48.738;9.616;2022-11-13T19:03:59;23.47;;;18.47;;
6862;SDS011;3470;48.738;9.616;2022-11-13T19:06:26;22.53;;;19.40;;
6862;SDS011;3470;48.738;9.616;2022-11-13T19:08:53;24.60;;;19.57;;
6862;SDS011;3470;48.738;9.616;2022-11-13T19:11:21;25.90;;;19.50;;
6862;SDS011;3470;48.738;9.616;2022-11-13T19:13:46;24.23;;;19.50;;
6862;SDS011;3470;48.738;9.616;2022-11-13T19:16:14;36.27;;;25.77;;
6862;SDS011;3470;48.738;9.616;2022-11-13T19:18:49;25.00;;;19.43;;
6862;SDS011;3470;48.738;9.616;2022-11-13T19:21:20;25.87;;;21.20;;
6862;SDS011;3470;48.738;9.616;2022-11-13T19:23:48;29.70;;;21.17;;
6862;SDS011;3470;48.738;9.616;2022-11-13T19:26:14;27.00;;;22.10;;
6862;SDS011;3470;48.738;9.616;2022-11-13T19:28:40;33.00;;;24.80;;
6862;SDS011;3470;48.738;9.616;2022-11-13T19:31:06;30.27;;;23.13;;
6862;SDS011;3470;48.738;9.616;2022-11-13T19:33:33;28.63;;;21.50;;
6862;SDS011;3470;48.738;9.616;2022-11-13T19:36:03;31.17;;;22.47;;
6862;SDS011;3470;48.738;9.616;2022-11-13T19:38:34;30.53;;;23.13;;
6862;SDS011;3470;48.738;9.616;2022-11-13T19:41:00;29.17;;;22.43;;
6862;SDS011;3470;48.738;9.616;2022-11-13T19:43:26;31.60;;;23.10;;
6862;SDS011;3470;48.738;9.616;2022-11-13T19:45:51;29.10;;;21.13;;
6862;SDS011;3470;48.738;9.616;2022-11-13T19:48:17;25.03;;;18.47;;
6862;SDS011;3470;48.738;9.616;2022-11-13T19:50:42;26.50;;;20.57;;
6862;SDS011;3470;48.738;9.616;2022-11-13T19:53:11;25.67;;;19.37;;
6862;SDS011;3470;48.738;9.616;2022-11-13T19:55:39;28.83;;;19.97;;
6862;SDS011;3470;48.738;9.616;2022-11-13T19:58:05;29.13;;;21.80;;
6862;SDS011;3470;48.738;9.616;2022-11-13T20:00:30;30.17;;;21.97;;
6862;SDS011;3470;48.738;9.616;2022-11-13T20:02:56;29.97;;;21.90;;
6862;SDS011;3470;48.738;9.616;2022-11-13T20:05:22;32.60;;;23.10;;
6862;SDS011;3470;48.738;9.616;2022-11-13T20:07:47;32.93;;;24.20;;
6862;SDS011;3470;48.738;9.616;2022-11-13T20:10:13;35.80;;;26.00;;
6862;SDS011;3470;48.738;9.616;2022-11-13T20:12:39;38.70;;;25.80;;
6862;SDS011;3470;48.738;9.616;2022-11-13T20:15:04;38.07;;;26.13;;
6862;SDS011;3470;48.738;9.616;2022-11-13T20:17:30;35.33;;;26.10;;
6862;SDS011;3470;48.738;9.616;2022-11-13T20:19:56;38.73;;;26.07;;
6862;SDS011;3470;48.738;9.616;2022-11-13T20:22:22;38.10;;;25.73;;
6862;SDS011;3470;48.738;9.616;2022-11-13T20:24:47;40.13;;;26.27;;
6862;SDS011;3470;48.738;9.616;2022-11-13T20:27:13;42.93;;;28.47;;
6862;SDS011;3470;48.738;9.616;2022-11-13T20:29:38;34.63;;;25.93;;
6862;SDS011;3470;48.738;9.616;2022-11-13T20:32:04;42.37;;;28.03;;
6862;SDS011;3470;48.738;9.616;2022-11-13T20:34:29;39.70;;;28.63;;
6862;SDS011;3470;48.738;9.616;2022-11-13T20:36:55;45.10;;;28.90;;
6862;SDS011;3470;48.738;9.616;2022-11-13T20:39:20;42.07;;;27.93;;
6862;SDS011;3470;48.738;9.616;2022-11-13T20:41:46;42.73;;;28.17;;
6862;SDS011;3470;48.738;9.616;2022-11-13T20:44:12;43.10;;;28.37;;
6862;SDS011;3470;48.738;9.616;2022-11-13T20:46:39;40.60;;;28.33;;
6862;SDS011;3470;48.738;9.616;2022-11-13T20:49:05;47.33;;;29.47;;
6862;SDS011;3470;48.738;9.616;2022-11-13T20:51:31;42.83;;;28.87;;
6862;SDS011;3470;48.738;9.616;2022-11-13T20:53:57;46.37;;;29.10;;
6862;SDS011;3470;48.738;9.616;2022-11-13T20:56:23;44.83;;;29.00;;
6862;SDS011;3470;48.738;9.616;2022-11-13T20:58:49;45.43;;;30.07;;
6862;SDS011;3470;48.738;9.616;2022-11-13T21:01:16;42.47;;;28.67;;
6862;SDS011;3470;48.738;9.616;2022-11-13T21:03:47;43.53;;;28.33;;
6862;SDS011;3470;48.738;9.616;2022-11-13T21:06:22;46.20;;;29.53;;
6862;SDS011;3470;48.738;9.616;2022-11-13T21:08:49;46.47;;;30.80;;
6862;SDS011;3470;48.738;9.616;2022-11-13T21:11:18;45.50;;;30.30;;
6862;SDS011;3470;48.738;9.616;2022-11-13T21:13:51;44.40;;;29.27;;
6862;SDS011;3470;48.738;9.616;2022-11-13T21:16:19;46.07;;;29.33;;
6862;SDS011;3470;48.738;9.616;2022-11-13T21:18:45;41.40;;;27.17;;
6862;SDS011;3470;48.738;9.616;2022-11-13T21:21:11;39.83;;;26.80;;
6862;SDS011;3470;48.738;9.616;2022-11-13T21:23:40;40.63;;;26.50;;
6862;SDS011;3470;48.738;9.616;2022-11-13T21:26:06;36.23;;;25.87;;
6862;SDS011;3470;48.738;9.616;2022-11-13T21:28:33;38.93;;;24.90;;
6862;SDS011;3470;48.738;9.616;2022-11-13T21:31:02;39.13;;;26.40;;
6862;SDS011;3470;48.738;9.616;2022-11-13T21:33:29;39.50;;;26.73;;
6862;SDS011;3470;48.738;9.616;2022-11-13T21:36:10;36.73;;;24.43;;
6862;SDS011;3470;48.738;9.616;2022-11-13T21:38:37;40.53;;;26.63;;
6862;SDS011;3470;48.738;9.616;2022-11-13T21:41:04;42.70;;;27.40;;
6862;SDS011;3470;48.738;9.616;2022-11-13T21:43:50;42.10;;;27.67;;
6862;SDS011;3470;48.738;9.616;2022-11-13T21:46:18;47.27;;;28.80;;
6862;SDS011;3470;48.738;9.616;2022-11-13T21:48:45;56.10;;;31.37;;
6862;SDS011;3470;48.738;9.616;2022-11-13T21:51:11;48.77;;;30.93;;
6862;SDS011;3470;48.738;9.616;2022-11-13T21:53:37;53.30;;;31.47;;
6862;SDS011;3470;48.738;9.616;2022-11-13T21:56:03;50.53;;;31.47;;
6862;SDS011;3470;48.738;9.616;2022-11-13T21:58:29;50.67;;;29.93;;
6862;SDS011;3470;48.738;9.616;2022-11-13T22:00:56;48.50;;;29.67;;
6862;SDS011;3470;48.738;9.616;2022-11-13T22:03:22;44.60;;;28.43;;
6862;SDS011;3470;48.738;9.616;2022-11-13T22:05:47;44.10;;;29.23;;
6862;SDS011;3470;48.738;9.616;2022-11-13T22:08:13;50.83;;;29.13;;
6862;SDS011;3470;48.738;9.616;2022-11-13T22:10:39;48.00;;;29.50;;
6862;SDS011;3470;48.738;9.616;2022-11-13T22:13:04;41.43;;;27.27;;
6862;SDS011;3470;48.738;9.616;2022-11-13T22:15:30;48.50;;;28.67;;
6862;SDS011;3470;48.738;9.616;2022-11-13T22:17:55;48.60;;;30.33;;
6862;SDS011;3470;48.738;9.616;2022-11-13T22:20:21;53.23;;;31.07;;
6862;SDS011;3470;48.738;9.616;2022-11-13T22:22:47;52.17;;;30.67;;
6862;SDS011;3470;48.738;9.616;2022-11-13T22:25:12;52.17;;;30.77;;
6862;SDS011;3470;48.738;9.616;2022-11-13T22:27:38;50.20;;;28.17;;
6862;SDS011;3470;48.738;9.616;2022-11-13T22:30:03;44.67;;;26.97;;
6862;SDS011;3470;48.738;9.616;2022-11-13T22:32:29;51.33;;;30.50;;
6862;SDS011;3470;48.738;9.616;2022-11-13T22:34:55;54.97;;;31.60;;
6862;SDS011;3470;48.738;9.616;2022-11-13T22:37:21;57.40;;;33.93;;
6862;SDS011;3470;48.738;9.616;2022-11-13T22:39:46;56.17;;;34.17;;
6862;SDS011;3470;48.738;9.616;2022-11-13T22:42:12;57.27;;;34.07;;
6862;SDS011;3470;48.738;9.616;2022-11-13T22:44:37;58.27;;;33.57;;
6862;SDS011;3470;48.738;9.616;2022-11-13T22:47:03;55.27;;;32.73;;
6862;SDS011;3470;48.738;9.616;2022-11-13T22:49:29;60.63;;;34.23;;
6862;SDS011;3470;48.738;9.616;2022-11-13T22:51:54;58.67;;;35.60;;
6862;SDS011;3470;48.738;9.616;2022-11-13T22:54:20;55.67;;;33.23;;
6862;SDS011;3470;48.738;9.616;2022-11-13T22:56:45;53.40;;;32.23;;
6862;SDS011;3470;48.738;9.616;2022-11-13T22:59:11;56.43;;;33.20;;
6862;SDS011;3470;48.738;9.616;2022-11-13T23:01:37;49.53;;;30.13;;
6862;SDS011;3470;48.738;9.616;2022-11-13T23:04:05;49.73;;;29.47;;
6862;SDS011;3470;48.738;9.616;2022-11-13T23:06:34;48.83;;;29.13;;
6862;SDS011;3470;48.738;9.616;2022-11-13T23:09:00;50.43;;;31.73;;
6862;SDS011;3470;48.738;9.616;2022-11-13T23:11:26;56.67;;;32.93;;
6862;SDS011;3470;48.738;9.616;2022-11-13T23:13:55;53.93;;;32.87;;
6862;SDS011;3470;48.738;9.616;2022-11-13T23:16:23;50.97;;;31.23;;
6862;SDS011;3470;48.738;9.616;2022-11-13T23:18:52;49.77;;;31.70;;
6862;SDS011;3470;48.738;9.616;2022-11-13T23:21:19;53.70;;;32.87;;
6862;SDS011;3470;48.738;9.616;2022-11-13T23:23:45;52.73;;;32.00;;
6862;SDS011;3470;48.738;9.616;2022-11-13T23:26:12;50.80;;;32.40;;
6862;SDS011;3470;48.738;9.616;2022-11-13T23:28:38;50.33;;;31.23;;
6862;SDS011;3470;48.738;9.616;2022-11-13T23:31:05;49.40;;;33.03;;
6862;SDS011;3470;48.738;9.616;2022-11-13T23:33:30;54.40;;;33.83;;
6862;SDS011;3470;48.738;9.616;2022-11-13T23:35:56;47.80;;;30.43;;
6862;SDS011;3470;48.738;9.616;2022-11-13T23:38:22;48.83;;;31.83;;
6862;SDS011;3470;48.738;9.616;2022-11-13T23:40:51;51.70;;;32.57;;
6862;SDS011;3470;48.738;9.616;2022-11-13T23:43:18;49.63;;;31.87;;
6862;SDS011;3470;48.738;9.616;2022-11-13T23:45:44;49.03;;;30.33;;
6862;SDS011;3470;48.738;9.616;2022-11-13T23:48:10;52.33;;;32.17;;
6862;SDS011;3470;48.738;9.616;2022-11-13T23:50:35;55.83;;;32.93;;
6862;SDS011;3470;48.738;9.616;2022-11-13T23:53:02;51.70;;;31.60;;
6862;SDS011;3470;48.738;9.616;2022-11-13T23:55:28;56.63;;;32.97;;
6862;SDS011;3470;48.738;9.616;2022-11-13T23:57:57;53.27;;;33.63;;
